sensor_id;sensor_type;location;lat;lon;timestamp;P1;durP1;ratioP1;P2;durP2;ratioP2
22318;SDS011;11327;52.334;9.506;2022-07-15T00:02:24;4.45;;;1.40;;
22318;SDS011;11327;52.334;9.506;2022-07-15T00:05:45;2.90;;;1.47;;
22318;SDS011;11327;52.334;9.506;2022-07-15T00:09:06;5.00;;;1.40;;
22318;SDS011;11327;52.334;9.506;2022-07-15T00:12:28;2.92;;;1.32;;
22318;SDS011;11327;52.334;9.506;2022-07-15T00:15:49;2.92;;;1.40;;
22318;SDS011;11327;52.334;9.506;2022-07-15T00:19:10;2.15;;;1.45;;
22318;SDS011;11327;52.334;9.506;2022-07-15T00:22:31;4.87;;;1.35;;
22318;SDS011;11327;52.334;9.506;2022-07-15T00:25:52;4.60;;;1.55;;
22318;SDS011;11327;52.334;9.506;2022-07-15T00:29:13;5.00;;;1.62;;
22318;SDS011;11327;52.334;9.506;2022-07-15T00:32:34;4.33;;;1.47;;
22318;SDS011;11327;52.334;9.506;2022-07-15T00:35:55;2.02;;;1.20;;
22318;SDS011;11327;52.334;9.506;2022-07-15T00:39:16;5.55;;;1.62;;
22318;SDS011;11327;52.334;9.506;2022-07-15T00:42:37;4.60;;;1.42;;
22318;SDS011;11327;52.334;9.506;2022-07-15T00:49:25;6.03;;;1.72;;
22318;SDS011;11327;52.334;9.506;2022-07-15T00:52:53;5.30;;;1.50;;
22318;SDS011;11327;52.334;9.506;2022-07-15T00:56:16;4.42;;;1.40;;
22318;SDS011;11327;52.334;9.506;2022-07-15T00:59:40;3.98;;;1.50;;
22318;SDS011;11327;52.334;9.506;2022-07-15T01:03:01;6.45;;;1.42;;
22318;SDS011;11327;52.334;9.506;2022-07-15T01:06:22;6.00;;;1.52;;
22318;SDS011;11327;52.334;9.506;2022-07-15T01:09:45;4.65;;;1.40;;
22318;SDS011;11327;52.334;9.506;2022-07-15T01:13:08;3.17;;;1.22;;
22318;SDS011;11327;52.334;9.506;2022-07-15T01:16:29;5.92;;;1.50;;
22318;SDS011;11327;52.334;9.506;2022-07-15T01:19:50;4.60;;;1.72;;
22318;SDS011;11327;52.334;9.506;2022-07-15T01:23:12;5.08;;;1.60;;
22318;SDS011;11327;52.334;9.506;2022-07-15T01:26:33;4.58;;;1.42;;
22318;SDS011;11327;52.334;9.506;2022-07-15T01:29:54;3.08;;;1.40;;
22318;SDS011;11327;52.334;9.506;2022-07-15T01:33:15;4.45;;;1.40;;
22318;SDS011;11327;52.334;9.506;2022-07-15T01:36:36;5.42;;;1.40;;
22318;SDS011;11327;52.334;9.506;2022-07-15T01:39:58;4.22;;;1.32;;
22318;SDS011;11327;52.334;9.506;2022-07-15T01:43:19;7.10;;;1.45;;
22318;SDS011;11327;52.334;9.506;2022-07-15T01:46:40;4.30;;;1.35;;
22318;SDS011;11327;52.334;9.506;2022-07-15T01:50:01;3.37;;;1.17;;
22318;SDS011;11327;52.334;9.506;2022-07-15T01:53:23;5.42;;;1.20;;
22318;SDS011;11327;52.334;9.506;2022-07-15T01:56:44;5.53;;;1.47;;
22318;SDS011;11327;52.334;9.506;2022-07-15T02:00:06;5.92;;;1.60;;
22318;SDS011;11327;52.334;9.506;2022-07-15T02:03:28;7.40;;;1.50;;
22318;SDS011;11327;52.334;9.506;2022-07-15T02:06:49;5.22;;;1.50;;
22318;SDS011;11327;52.334;9.506;2022-07-15T02:10:11;6.03;;;1.77;;
22318;SDS011;11327;52.334;9.506;2022-07-15T02:13:32;6.83;;;1.55;;
22318;SDS011;11327;52.334;9.506;2022-07-15T02:16:53;4.83;;;2.15;;
22318;SDS011;11327;52.334;9.506;2022-07-15T02:20:15;4.25;;;1.50;;
22318;SDS011;11327;52.334;9.506;2022-07-15T02:23:36;5.08;;;1.50;;
22318;SDS011;11327;52.334;9.506;2022-07-15T02:26:57;6.50;;;1.60;;
22318;SDS011;11327;52.334;9.506;2022-07-15T02:30:18;4.80;;;1.47;;
22318;SDS011;11327;52.334;9.506;2022-07-15T02:33:39;4.75;;;1.70;;
22318;SDS011;11327;52.334;9.506;2022-07-15T02:37:02;5.78;;;1.60;;
22318;SDS011;11327;52.334;9.506;2022-07-15T02:40:23;9.33;;;1.90;;
22318;SDS011;11327;52.334;9.506;2022-07-15T02:43:44;5.92;;;1.70;;
22318;SDS011;11327;52.334;9.506;2022-07-15T02:47:05;4.72;;;1.70;;
22318;SDS011;11327;52.334;9.506;2022-07-15T02:50:26;6.05;;;1.40;;
22318;SDS011;11327;52.334;9.506;2022-07-15T02:53:48;3.62;;;1.50;;
22318;SDS011;11327;52.334;9.506;2022-07-15T02:57:09;5.67;;;1.77;;
22318;SDS011;11327;52.334;9.506;2022-07-15T03:00:30;4.90;;;1.70;;
22318;SDS011;11327;52.334;9.506;2022-07-15T03:03:53;6.85;;;1.98;;
22318;SDS011;11327;52.334;9.506;2022-07-15T03:07:14;4.62;;;1.60;;
22318;SDS011;11327;52.334;9.506;2022-07-15T03:10:35;4.37;;;1.60;;
22318;SDS011;11327;52.334;9.506;2022-07-15T03:13:56;4.90;;;1.57;;
22318;SDS011;11327;52.334;9.506;2022-07-15T03:17:17;4.70;;;1.47;;
22318;SDS011;11327;52.334;9.506;2022-07-15T03:20:39;6.28;;;2.05;;
22318;SDS011;11327;52.334;9.506;2022-07-15T03:23:59;4.75;;;1.70;;
22318;SDS011;11327;52.334;9.506;2022-07-15T03:27:20;4.67;;;1.50;;
22318;SDS011;11327;52.334;9.506;2022-07-15T03:30:42;4.65;;;1.85;;
22318;SDS011;11327;52.334;9.506;2022-07-15T03:34:03;4.22;;;1.60;;
22318;SDS011;11327;52.334;9.506;2022-07-15T03:37:24;4.60;;;1.77;;
22318;SDS011;11327;52.334;9.506;2022-07-15T03:40:45;6.53;;;1.82;;
22318;SDS011;11327;52.334;9.506;2022-07-15T03:44:06;4.78;;;1.55;;
22318;SDS011;11327;52.334;9.506;2022-07-15T03:47:27;3.45;;;1.37;;
22318;SDS011;11327;52.334;9.506;2022-07-15T03:50:49;6.37;;;1.62;;
22318;SDS011;11327;52.334;9.506;2022-07-15T03:54:10;4.55;;;1.65;;
22318;SDS011;11327;52.334;9.506;2022-07-15T03:57:32;6.40;;;1.65;;
22318;SDS011;11327;52.334;9.506;2022-07-15T04:00:53;4.00;;;1.72;;
22318;SDS011;11327;52.334;9.506;2022-07-15T04:04:14;5.35;;;1.47;;
22318;SDS011;11327;52.334;9.506;2022-07-15T04:07:35;5.50;;;1.67;;
22318;SDS011;11327;52.334;9.506;2022-07-15T04:10:57;5.78;;;1.60;;
22318;SDS011;11327;52.334;9.506;2022-07-15T04:14:18;4.78;;;1.22;;
22318;SDS011;11327;52.334;9.506;2022-07-15T04:17:40;5.95;;;1.82;;
22318;SDS011;11327;52.334;9.506;2022-07-15T04:21:01;4.58;;;1.42;;
22318;SDS011;11327;52.334;9.506;2022-07-15T04:24:22;7.00;;;1.90;;
22318;SDS011;11327;52.334;9.506;2022-07-15T04:27:44;6.17;;;1.77;;
22318;SDS011;11327;52.334;9.506;2022-07-15T04:31:05;7.42;;;1.90;;
22318;SDS011;11327;52.334;9.506;2022-07-15T04:34:26;8.25;;;1.80;;
22318;SDS011;11327;52.334;9.506;2022-07-15T04:37:47;6.47;;;1.90;;
22318;SDS011;11327;52.334;9.506;2022-07-15T04:41:08;4.97;;;1.67;;
22318;SDS011;11327;52.334;9.506;2022-07-15T04:44:29;7.50;;;1.67;;
22318;SDS011;11327;52.334;9.506;2022-07-15T04:47:50;5.47;;;1.75;;
22318;SDS011;11327;52.334;9.506;2022-07-15T04:51:11;8.20;;;1.75;;
22318;SDS011;11327;52.334;9.506;2022-07-15T04:54:32;5.25;;;1.30;;
22318;SDS011;11327;52.334;9.506;2022-07-15T04:57:53;5.87;;;1.77;;
22318;SDS011;11327;52.334;9.506;2022-07-15T05:01:14;6.28;;;1.75;;
22318;SDS011;11327;52.334;9.506;2022-07-15T05:04:35;5.47;;;1.70;;
22318;SDS011;11327;52.334;9.506;2022-07-15T05:07:56;8.98;;;1.90;;
22318;SDS011;11327;52.334;9.506;2022-07-15T05:11:17;5.35;;;1.85;;
22318;SDS011;11327;52.334;9.506;2022-07-15T05:14:39;9.80;;;2.12;;
22318;SDS011;11327;52.334;9.506;2022-07-15T05:18:01;8.03;;;1.98;;
22318;SDS011;11327;52.334;9.506;2022-07-15T05:21:22;7.12;;;2.00;;
22318;SDS011;11327;52.334;9.506;2022-07-15T05:24:43;6.70;;;1.72;;
22318;SDS011;11327;52.334;9.506;2022-07-15T05:28:04;5.97;;;1.60;;
22318;SDS011;11327;52.334;9.506;2022-07-15T05:31:25;7.60;;;1.90;;
22318;SDS011;11327;52.334;9.506;2022-07-15T05:34:47;6.05;;;1.47;;
22318;SDS011;11327;52.334;9.506;2022-07-15T05:38:08;6.37;;;1.80;;
22318;SDS011;11327;52.334;9.506;2022-07-15T05:41:29;6.40;;;1.60;;
22318;SDS011;11327;52.334;9.506;2022-07-15T05:44:52;4.60;;;1.50;;
22318;SDS011;11327;52.334;9.506;2022-07-15T05:48:13;9.15;;;1.45;;
22318;SDS011;11327;52.334;9.506;2022-07-15T05:51:34;6.72;;;1.50;;
22318;SDS011;11327;52.334;9.506;2022-07-15T05:54:55;5.45;;;1.60;;
22318;SDS011;11327;52.334;9.506;2022-07-15T05:58:16;5.53;;;1.40;;
22318;SDS011;11327;52.334;9.506;2022-07-15T06:01:37;5.10;;;1.55;;
22318;SDS011;11327;52.334;9.506;2022-07-15T06:04:58;4.33;;;1.27;;
22318;SDS011;11327;52.334;9.506;2022-07-15T06:08:21;7.92;;;1.90;;
22318;SDS011;11327;52.334;9.506;2022-07-15T06:11:42;5.25;;;1.65;;
22318;SDS011;11327;52.334;9.506;2022-07-15T06:15:05;6.12;;;1.20;;
22318;SDS011;11327;52.334;9.506;2022-07-15T06:18:26;6.62;;;1.40;;
22318;SDS011;11327;52.334;9.506;2022-07-15T06:21:47;4.42;;;1.17;;
22318;SDS011;11327;52.334;9.506;2022-07-15T06:25:09;4.92;;;1.65;;
22318;SDS011;11327;52.334;9.506;2022-07-15T06:28:30;7.08;;;1.45;;
22318;SDS011;11327;52.334;9.506;2022-07-15T06:31:51;4.45;;;1.35;;
22318;SDS011;11327;52.334;9.506;2022-07-15T06:35:12;9.23;;;2.02;;
22318;SDS011;11327;52.334;9.506;2022-07-15T06:38:33;8.13;;;1.50;;
22318;SDS011;11327;52.334;9.506;2022-07-15T06:41:54;7.37;;;1.75;;
22318;SDS011;11327;52.334;9.506;2022-07-15T06:45:14;6.87;;;1.27;;
22318;SDS011;11327;52.334;9.506;2022-07-15T06:48:35;5.60;;;1.27;;
22318;SDS011;11327;52.334;9.506;2022-07-15T06:51:58;5.12;;;1.35;;
22318;SDS011;11327;52.334;9.506;2022-07-15T06:55:19;4.58;;;1.30;;
22318;SDS011;11327;52.334;9.506;2022-07-15T06:58:41;6.47;;;1.45;;
22318;SDS011;11327;52.334;9.506;2022-07-15T07:02:01;5.05;;;1.47;;
22318;SDS011;11327;52.334;9.506;2022-07-15T07:05:23;4.22;;;1.05;;
22318;SDS011;11327;52.334;9.506;2022-07-15T07:08:43;6.25;;;1.07;;
22318;SDS011;11327;52.334;9.506;2022-07-15T07:12:06;4.62;;;1.20;;
22318;SDS011;11327;52.334;9.506;2022-07-15T07:15:27;6.30;;;1.20;;
22318;SDS011;11327;52.334;9.506;2022-07-15T07:18:51;3.67;;;0.93;;
22318;SDS011;11327;52.334;9.506;2022-07-15T07:22:12;3.90;;;1.00;;
22318;SDS011;11327;52.334;9.506;2022-07-15T07:25:33;4.47;;;1.05;;
22318;SDS011;11327;52.334;9.506;2022-07-15T07:28:54;3.67;;;0.93;;
22318;SDS011;11327;52.334;9.506;2022-07-15T07:32:15;3.40;;;1.12;;
22318;SDS011;11327;52.334;9.506;2022-07-15T07:35:36;4.08;;;1.00;;
22318;SDS011;11327;52.334;9.506;2022-07-15T07:38:57;4.92;;;0.93;;
22318;SDS011;11327;52.334;9.506;2022-07-15T07:42:18;6.37;;;0.90;;
22318;SDS011;11327;52.334;9.506;2022-07-15T07:45:39;3.98;;;0.70;;
22318;SDS011;11327;52.334;9.506;2022-07-15T07:49:01;3.33;;;0.70;;
22318;SDS011;11327;52.334;9.506;2022-07-15T07:52:22;4.60;;;0.80;;
22318;SDS011;11327;52.334;9.506;2022-07-15T07:55:43;3.27;;;0.60;;
22318;SDS011;11327;52.334;9.506;2022-07-15T07:59:04;2.65;;;0.53;;
22318;SDS011;11327;52.334;9.506;2022-07-15T08:02:25;2.98;;;0.50;;
22318;SDS011;11327;52.334;9.506;2022-07-15T08:05:46;4.92;;;0.60;;
22318;SDS011;11327;52.334;9.506;2022-07-15T08:09:08;3.77;;;0.72;;
22318;SDS011;11327;52.334;9.506;2022-07-15T08:12:29;2.80;;;0.40;;
22318;SDS011;11327;52.334;9.506;2022-07-15T08:15:50;2.98;;;0.70;;
22318;SDS011;11327;52.334;9.506;2022-07-15T08:19:14;3.58;;;0.60;;
22318;SDS011;11327;52.334;9.506;2022-07-15T08:22:37;1.90;;;0.70;;
22318;SDS011;11327;52.334;9.506;2022-07-15T08:25:58;2.22;;;0.60;;
22318;SDS011;11327;52.334;9.506;2022-07-15T08:29:20;1.17;;;0.35;;
22318;SDS011;11327;52.334;9.506;2022-07-15T08:32:41;3.20;;;0.45;;
22318;SDS011;11327;52.334;9.506;2022-07-15T08:36:02;2.55;;;0.80;;
22318;SDS011;11327;52.334;9.506;2022-07-15T08:39:24;4.05;;;0.50;;
22318;SDS011;11327;52.334;9.506;2022-07-15T08:42:45;2.75;;;0.60;;
22318;SDS011;11327;52.334;9.506;2022-07-15T08:46:09;2.40;;;0.50;;
22318;SDS011;11327;52.334;9.506;2022-07-15T08:49:31;4.10;;;0.60;;
22318;SDS011;11327;52.334;9.506;2022-07-15T08:52:53;2.90;;;0.50;;
22318;SDS011;11327;52.334;9.506;2022-07-15T08:56:16;1.15;;;0.40;;
22318;SDS011;11327;52.334;9.506;2022-07-15T08:59:39;2.87;;;0.40;;
22318;SDS011;11327;52.334;9.506;2022-07-15T09:03:01;2.77;;;0.40;;
22318;SDS011;11327;52.334;9.506;2022-07-15T09:06:31;2.65;;;0.55;;
22318;SDS011;11327;52.334;9.506;2022-07-15T09:10:00;2.65;;;0.50;;
22318;SDS011;11327;52.334;9.506;2022-07-15T09:17:02;1.98;;;0.50;;
22318;SDS011;11327;52.334;9.506;2022-07-15T09:20:32;3.02;;;0.50;;
22318;SDS011;11327;52.334;9.506;2022-07-15T09:23:54;2.22;;;0.65;;
22318;SDS011;11327;52.334;9.506;2022-07-15T09:27:28;3.05;;;0.35;;
22318;SDS011;11327;52.334;9.506;2022-07-15T09:30:51;1.87;;;0.55;;
22318;SDS011;11327;52.334;9.506;2022-07-15T09:34:32;2.35;;;0.50;;
22318;SDS011;11327;52.334;9.506;2022-07-15T09:37:56;1.45;;;0.50;;
22318;SDS011;11327;52.334;9.506;2022-07-15T09:44:45;1.82;;;0.33;;
22318;SDS011;11327;52.334;9.506;2022-07-15T09:48:11;5.20;;;0.42;;
22318;SDS011;11327;52.334;9.506;2022-07-15T09:51:30;1.72;;;0.37;;
22318;SDS011;11327;52.334;9.506;2022-07-15T09:54:54;2.60;;;0.50;;
22318;SDS011;11327;52.334;9.506;2022-07-15T09:58:15;2.00;;;0.47;;
22318;SDS011;11327;52.334;9.506;2022-07-15T10:01:39;3.75;;;0.42;;
22318;SDS011;11327;52.334;9.506;2022-07-15T10:05:00;2.08;;;0.33;;
22318;SDS011;11327;52.334;9.506;2022-07-15T10:08:22;3.08;;;0.70;;
22318;SDS011;11327;52.334;9.506;2022-07-15T10:11:46;6.30;;;0.65;;
22318;SDS011;11327;52.334;9.506;2022-07-15T10:29:55;2.33;;;0.70;;
22318;SDS011;11327;52.334;9.506;2022-07-15T10:33:16;2.95;;;0.50;;
22318;SDS011;11327;52.334;9.506;2022-07-15T10:40:17;2.75;;;0.90;;
22318;SDS011;11327;52.334;9.506;2022-07-15T10:43:40;3.75;;;0.60;;
22318;SDS011;11327;52.334;9.506;2022-07-15T10:50:38;3.37;;;0.60;;
22318;SDS011;11327;52.334;9.506;2022-07-15T10:54:00;3.40;;;0.60;;
22318;SDS011;11327;52.334;9.506;2022-07-15T11:01:10;2.77;;;0.70;;
22318;SDS011;11327;52.334;9.506;2022-07-15T11:04:31;4.00;;;0.60;;
22318;SDS011;11327;52.334;9.506;2022-07-15T11:07:53;2.37;;;0.60;;
22318;SDS011;11327;52.334;9.506;2022-07-15T11:14:56;4.53;;;0.70;;
22318;SDS011;11327;52.334;9.506;2022-07-15T11:18:19;3.40;;;0.70;;
22318;SDS011;11327;52.334;9.506;2022-07-15T11:21:41;3.27;;;0.70;;
22318;SDS011;11327;52.334;9.506;2022-07-15T11:25:05;3.15;;;0.60;;
22318;SDS011;11327;52.334;9.506;2022-07-15T11:28:27;2.35;;;0.60;;
22318;SDS011;11327;52.334;9.506;2022-07-15T11:31:48;2.30;;;0.50;;
22318;SDS011;11327;52.334;9.506;2022-07-15T11:35:10;2.33;;;0.50;;
22318;SDS011;11327;52.334;9.506;2022-07-15T11:38:37;3.25;;;0.40;;
22318;SDS011;11327;52.334;9.506;2022-07-15T11:41:58;2.10;;;0.40;;
22318;SDS011;11327;52.334;9.506;2022-07-15T11:45:38;2.87;;;0.50;;
22318;SDS011;11327;52.334;9.506;2022-07-15T11:48:59;1.60;;;0.40;;
22318;SDS011;11327;52.334;9.506;2022-07-15T11:52:23;3.35;;;0.50;;
22318;SDS011;11327;52.334;9.506;2022-07-15T11:59:16;2.15;;;0.30;;
22318;SDS011;11327;52.334;9.506;2022-07-15T12:02:37;2.98;;;0.50;;
22318;SDS011;11327;52.334;9.506;2022-07-15T12:06:02;2.17;;;0.30;;
22318;SDS011;11327;52.334;9.506;2022-07-15T12:09:25;1.82;;;0.40;;
22318;SDS011;11327;52.334;9.506;2022-07-15T12:12:56;3.27;;;0.68;;
22318;SDS011;11327;52.334;9.506;2022-07-15T12:16:18;2.92;;;0.40;;
22318;SDS011;11327;52.334;9.506;2022-07-15T12:19:46;1.90;;;0.45;;
22318;SDS011;11327;52.334;9.506;2022-07-15T12:23:10;2.15;;;0.40;;
22318;SDS011;11327;52.334;9.506;2022-07-15T12:26:32;1.22;;;0.50;;
22318;SDS011;11327;52.334;9.506;2022-07-15T12:29:59;1.25;;;0.30;;
22318;SDS011;11327;52.334;9.506;2022-07-15T12:33:22;2.22;;;0.50;;
22318;SDS011;11327;52.334;9.506;2022-07-15T12:36:43;1.37;;;0.40;;
22318;SDS011;11327;52.334;9.506;2022-07-15T12:40:06;2.37;;;0.40;;
22318;SDS011;11327;52.334;9.506;2022-07-15T12:47:19;1.70;;;0.33;;
22318;SDS011;11327;52.334;9.506;2022-07-15T12:54:11;2.22;;;0.47;;
22318;SDS011;11327;52.334;9.506;2022-07-15T12:57:36;2.22;;;0.45;;
22318;SDS011;11327;52.334;9.506;2022-07-15T13:01:10;1.52;;;0.47;;
22318;SDS011;11327;52.334;9.506;2022-07-15T13:04:34;1.40;;;0.40;;
22318;SDS011;11327;52.334;9.506;2022-07-15T13:07:55;1.67;;;0.45;;
22318;SDS011;11327;52.334;9.506;2022-07-15T13:11:16;1.37;;;0.42;;
22318;SDS011;11327;52.334;9.506;2022-07-15T13:14:39;1.35;;;0.45;;
22318;SDS011;11327;52.334;9.506;2022-07-15T13:18:01;2.95;;;0.70;;
22318;SDS011;11327;52.334;9.506;2022-07-15T13:21:22;1.57;;;0.40;;
22318;SDS011;11327;52.334;9.506;2022-07-15T13:24:43;1.37;;;0.37;;
22318;SDS011;11327;52.334;9.506;2022-07-15T13:28:05;2.33;;;0.40;;
22318;SDS011;11327;52.334;9.506;2022-07-15T13:31:26;2.42;;;0.42;;
22318;SDS011;11327;52.334;9.506;2022-07-15T13:34:47;1.40;;;0.50;;
22318;SDS011;11327;52.334;9.506;2022-07-15T13:38:08;1.27;;;0.30;;
22318;SDS011;11327;52.334;9.506;2022-07-15T13:41:29;2.17;;;0.40;;
22318;SDS011;11327;52.334;9.506;2022-07-15T13:44:51;1.52;;;0.50;;
22318;SDS011;11327;52.334;9.506;2022-07-15T13:48:13;3.12;;;0.50;;
22318;SDS011;11327;52.334;9.506;2022-07-15T13:51:34;2.27;;;0.40;;
22318;SDS011;11327;52.334;9.506;2022-07-15T13:54:56;2.27;;;0.72;;
22318;SDS011;11327;52.334;9.506;2022-07-15T13:58:18;1.92;;;0.40;;
22318;SDS011;11327;52.334;9.506;2022-07-15T14:01:39;1.45;;;0.40;;
22318;SDS011;11327;52.334;9.506;2022-07-15T14:04:59;2.60;;;0.50;;
22318;SDS011;11327;52.334;9.506;2022-07-15T14:08:21;2.17;;;0.53;;
22318;SDS011;11327;52.334;9.506;2022-07-15T14:11:42;2.10;;;0.50;;
22318;SDS011;11327;52.334;9.506;2022-07-15T14:15:03;3.25;;;0.62;;
22318;SDS011;11327;52.334;9.506;2022-07-15T14:18:25;1.60;;;0.40;;
22318;SDS011;11327;52.334;9.506;2022-07-15T14:22:06;2.05;;;0.40;;
22318;SDS011;11327;52.334;9.506;2022-07-15T14:25:27;2.87;;;0.37;;
22318;SDS011;11327;52.334;9.506;2022-07-15T14:28:48;1.27;;;0.30;;
22318;SDS011;11327;52.334;9.506;2022-07-15T14:32:09;1.60;;;0.37;;
22318;SDS011;11327;52.334;9.506;2022-07-15T14:35:30;0.55;;;0.20;;
22318;SDS011;11327;52.334;9.506;2022-07-15T14:38:51;1.85;;;0.30;;
22318;SDS011;11327;52.334;9.506;2022-07-15T14:42:12;1.45;;;0.30;;
22318;SDS011;11327;52.334;9.506;2022-07-15T14:45:34;2.30;;;0.40;;
22318;SDS011;11327;52.334;9.506;2022-07-15T14:48:55;1.95;;;0.30;;
22318;SDS011;11327;52.334;9.506;2022-07-15T14:52:16;1.47;;;0.40;;
22318;SDS011;11327;52.334;9.506;2022-07-15T14:55:37;0.78;;;0.30;;
22318;SDS011;11327;52.334;9.506;2022-07-15T14:58:58;1.98;;;0.30;;
22318;SDS011;11327;52.334;9.506;2022-07-15T15:02:19;2.35;;;0.50;;
22318;SDS011;11327;52.334;9.506;2022-07-15T15:05:42;1.40;;;0.40;;
22318;SDS011;11327;52.334;9.506;2022-07-15T15:09:04;1.12;;;0.20;;
22318;SDS011;11327;52.334;9.506;2022-07-15T15:12:25;1.72;;;0.53;;
22318;SDS011;11327;52.334;9.506;2022-07-15T15:15:46;1.30;;;0.40;;
22318;SDS011;11327;52.334;9.506;2022-07-15T15:19:07;2.33;;;0.75;;
22318;SDS011;11327;52.334;9.506;2022-07-15T15:22:28;2.22;;;0.30;;
22318;SDS011;11327;52.334;9.506;2022-07-15T15:25:49;1.85;;;0.30;;
22318;SDS011;11327;52.334;9.506;2022-07-15T15:29:29;1.50;;;0.90;;
22318;SDS011;11327;52.334;9.506;2022-07-15T15:32:50;1.60;;;0.40;;
22318;SDS011;11327;52.334;9.506;2022-07-15T15:36:13;1.37;;;0.30;;
22318;SDS011;11327;52.334;9.506;2022-07-15T15:39:34;1.70;;;0.30;;
22318;SDS011;11327;52.334;9.506;2022-07-15T15:42:55;1.70;;;0.20;;
22318;SDS011;11327;52.334;9.506;2022-07-15T15:46:16;3.30;;;0.47;;
22318;SDS011;11327;52.334;9.506;2022-07-15T15:49:38;1.47;;;0.30;;
22318;SDS011;11327;52.334;9.506;2022-07-15T15:52:59;1.40;;;0.30;;
22318;SDS011;11327;52.334;9.506;2022-07-15T15:56:20;0.80;;;0.30;;
22318;SDS011;11327;52.334;9.506;2022-07-15T15:59:41;0.98;;;0.30;;
22318;SDS011;11327;52.334;9.506;2022-07-15T16:03:02;1.77;;;0.30;;
22318;SDS011;11327;52.334;9.506;2022-07-15T16:06:23;1.55;;;0.28;;
22318;SDS011;11327;52.334;9.506;2022-07-15T16:09:45;0.75;;;0.30;;
22318;SDS011;11327;52.334;9.506;2022-07-15T16:13:06;1.57;;;0.30;;
22318;SDS011;11327;52.334;9.506;2022-07-15T16:16:27;0.40;;;0.20;;
22318;SDS011;11327;52.334;9.506;2022-07-15T16:19:48;2.45;;;0.30;;
22318;SDS011;11327;52.334;9.506;2022-07-15T16:23:09;0.37;;;0.10;;
22318;SDS011;11327;52.334;9.506;2022-07-15T16:26:30;1.32;;;0.33;;
22318;SDS011;11327;52.334;9.506;2022-07-15T16:29:51;1.00;;;0.20;;
22318;SDS011;11327;52.334;9.506;2022-07-15T16:33:13;0.95;;;0.20;;
22318;SDS011;11327;52.334;9.506;2022-07-15T16:36:34;0.72;;;0.25;;
22318;SDS011;11327;52.334;9.506;2022-07-15T16:39:55;1.95;;;0.30;;
22318;SDS011;11327;52.334;9.506;2022-07-15T16:43:16;1.47;;;0.30;;
22318;SDS011;11327;52.334;9.506;2022-07-15T16:46:38;1.70;;;0.50;;
22318;SDS011;11327;52.334;9.506;2022-07-15T16:50:00;1.67;;;0.65;;
22318;SDS011;11327;52.334;9.506;2022-07-15T16:53:21;0.50;;;0.20;;
22318;SDS011;11327;52.334;9.506;2022-07-15T16:56:42;1.12;;;0.30;;
22318;SDS011;11327;52.334;9.506;2022-07-15T17:00:04;0.85;;;0.30;;
22318;SDS011;11327;52.334;9.506;2022-07-15T17:03:27;1.80;;;0.47;;
22318;SDS011;11327;52.334;9.506;2022-07-15T17:06:48;0.80;;;0.30;;
22318;SDS011;11327;52.334;9.506;2022-07-15T17:10:09;1.12;;;0.50;;
22318;SDS011;11327;52.334;9.506;2022-07-15T17:13:31;0.57;;;0.20;;
22318;SDS011;11327;52.334;9.506;2022-07-15T17:16:52;0.42;;;0.30;;
22318;SDS011;11327;52.334;9.506;2022-07-15T17:20:13;1.02;;;0.30;;
22318;SDS011;11327;52.334;9.506;2022-07-15T17:23:35;1.57;;;0.30;;
22318;SDS011;11327;52.334;9.506;2022-07-15T17:26:56;1.60;;;0.45;;
22318;SDS011;11327;52.334;9.506;2022-07-15T17:30:17;1.15;;;0.40;;
22318;SDS011;11327;52.334;9.506;2022-07-15T17:33:38;0.90;;;0.30;;
22318;SDS011;11327;52.334;9.506;2022-07-15T17:36:59;0.55;;;0.25;;
22318;SDS011;11327;52.334;9.506;2022-07-15T17:40:20;1.32;;;0.45;;
22318;SDS011;11327;52.334;9.506;2022-07-15T17:43:41;0.68;;;0.30;;
22318;SDS011;11327;52.334;9.506;2022-07-15T17:47:02;2.15;;;0.30;;
22318;SDS011;11327;52.334;9.506;2022-07-15T17:50:23;0.57;;;0.20;;
22318;SDS011;11327;52.334;9.506;2022-07-15T17:53:44;0.60;;;0.25;;
22318;SDS011;11327;52.334;9.506;2022-07-15T17:57:05;1.60;;;0.40;;
22318;SDS011;11327;52.334;9.506;2022-07-15T18:00:26;1.02;;;0.30;;
22318;SDS011;11327;52.334;9.506;2022-07-15T18:03:47;1.75;;;0.40;;
22318;SDS011;11327;52.334;9.506;2022-07-15T18:07:08;1.30;;;0.50;;
22318;SDS011;11327;52.334;9.506;2022-07-15T18:10:30;0.95;;;0.37;;
22318;SDS011;11327;52.334;9.506;2022-07-15T18:13:51;1.05;;;0.40;;
22318;SDS011;11327;52.334;9.506;2022-07-15T18:17:12;0.60;;;0.30;;
22318;SDS011;11327;52.334;9.506;2022-07-15T18:20:33;0.75;;;0.40;;
22318;SDS011;11327;52.334;9.506;2022-07-15T18:23:55;1.60;;;0.45;;
22318;SDS011;11327;52.334;9.506;2022-07-15T18:27:16;1.20;;;0.40;;
22318;SDS011;11327;52.334;9.506;2022-07-15T18:30:37;2.25;;;0.50;;
22318;SDS011;11327;52.334;9.506;2022-07-15T18:33:58;1.32;;;0.53;;
22318;SDS011;11327;52.334;9.506;2022-07-15T18:37:21;1.85;;;0.50;;
22318;SDS011;11327;52.334;9.506;2022-07-15T18:40:42;2.12;;;0.47;;
22318;SDS011;11327;52.334;9.506;2022-07-15T18:44:03;1.95;;;0.45;;
22318;SDS011;11327;52.334;9.506;2022-07-15T18:47:24;0.47;;;0.30;;
22318;SDS011;11327;52.334;9.506;2022-07-15T18:50:45;1.05;;;0.40;;
22318;SDS011;11327;52.334;9.506;2022-07-15T18:54:07;1.60;;;0.50;;
22318;SDS011;11327;52.334;9.506;2022-07-15T18:57:29;1.22;;;0.40;;
22318;SDS011;11327;52.334;9.506;2022-07-15T19:00:50;1.15;;;0.30;;
22318;SDS011;11327;52.334;9.506;2022-07-15T19:04:12;1.98;;;0.40;;
22318;SDS011;11327;52.334;9.506;2022-07-15T19:07:35;1.15;;;0.30;;
22318;SDS011;11327;52.334;9.506;2022-07-15T19:10:56;1.45;;;0.40;;
22318;SDS011;11327;52.334;9.506;2022-07-15T19:14:17;1.02;;;0.40;;
22318;SDS011;11327;52.334;9.506;2022-07-15T19:17:38;1.95;;;0.57;;
22318;SDS011;11327;52.334;9.506;2022-07-15T19:20:59;0.82;;;0.60;;
22318;SDS011;11327;52.334;9.506;2022-07-15T19:24:20;0.80;;;0.60;;
22318;SDS011;11327;52.334;9.506;2022-07-15T19:27:43;1.37;;;0.55;;
22318;SDS011;11327;52.334;9.506;2022-07-15T19:31:05;1.10;;;0.57;;
22318;SDS011;11327;52.334;9.506;2022-07-15T19:34:26;1.42;;;0.70;;
22318;SDS011;11327;52.334;9.506;2022-07-15T19:37:48;1.50;;;0.78;;
22318;SDS011;11327;52.334;9.506;2022-07-15T19:41:09;1.22;;;0.55;;
22318;SDS011;11327;52.334;9.506;2022-07-15T19:44:30;0.70;;;0.45;;
22318;SDS011;11327;52.334;9.506;2022-07-15T19:47:51;0.88;;;0.40;;
22318;SDS011;11327;52.334;9.506;2022-07-15T19:51:12;1.70;;;0.70;;
22318;SDS011;11327;52.334;9.506;2022-07-15T19:54:34;2.75;;;1.70;;
22318;SDS011;11327;52.334;9.506;2022-07-15T19:57:55;1.72;;;0.70;;
22318;SDS011;11327;52.334;9.506;2022-07-15T20:01:16;1.00;;;0.40;;
22318;SDS011;11327;52.334;9.506;2022-07-15T20:04:37;0.98;;;0.50;;
22318;SDS011;11327;52.334;9.506;2022-07-15T20:07:58;1.32;;;0.50;;
22318;SDS011;11327;52.334;9.506;2022-07-15T20:11:20;1.15;;;0.68;;
22318;SDS011;11327;52.334;9.506;2022-07-15T20:14:41;1.05;;;0.60;;
22318;SDS011;11327;52.334;9.506;2022-07-15T20:18:02;0.55;;;0.30;;
22318;SDS011;11327;52.334;9.506;2022-07-15T20:21:24;1.77;;;0.55;;
22318;SDS011;11327;52.334;9.506;2022-07-15T20:24:45;1.95;;;0.50;;
22318;SDS011;11327;52.334;9.506;2022-07-15T20:28:06;1.17;;;0.60;;
22318;SDS011;11327;52.334;9.506;2022-07-15T20:31:27;1.00;;;0.60;;
22318;SDS011;11327;52.334;9.506;2022-07-15T20:34:48;1.07;;;0.50;;
22318;SDS011;11327;52.334;9.506;2022-07-15T20:38:09;0.75;;;0.50;;
22318;SDS011;11327;52.334;9.506;2022-07-15T20:41:30;1.50;;;0.60;;
22318;SDS011;11327;52.334;9.506;2022-07-15T20:44:51;1.47;;;0.70;;
22318;SDS011;11327;52.334;9.506;2022-07-15T20:48:12;0.85;;;0.60;;
22318;SDS011;11327;52.334;9.506;2022-07-15T20:51:34;1.45;;;0.50;;
22318;SDS011;11327;52.334;9.506;2022-07-15T20:54:56;1.22;;;0.57;;
22318;SDS011;11327;52.334;9.506;2022-07-15T20:58:17;1.85;;;0.55;;
22318;SDS011;11327;52.334;9.506;2022-07-15T21:01:38;0.90;;;0.50;;
22318;SDS011;11327;52.334;9.506;2022-07-15T21:04:59;0.78;;;0.60;;
22318;SDS011;11327;52.334;9.506;2022-07-15T21:08:20;1.02;;;0.50;;